Weather Data

Pearl Creek Farm: 8878 N Farm Road 75, Walnut Grove MO 65770

<== Previous Day (Monday 11 Aug 2008) | Next Day (Wednesday 13 Aug 2008) ==>

Summary Precipitation Data For Tuesday 12 August 2008

ElementValueUnits
Precipitation0"
Notes(none)
SourceSpringfield-Branson National Airport (SGF)

Summary Temperature Data For Tuesday 12 August 2008

ElementValueUnits
High Temperature84 oF
Low Temperature66 oF
Average Temperature74 oF
High Humidity87 %
Low Humidity49 %
Average Humidity67 %
SourceSpringfield-Branson National Airport (SGF)

Detail Temperature Data For Tuesday 12 August 2008

Date / TimeTemp (F)RH (%)Dew Pt (F)Report Date / TimeSource
2008-08-12 00:52:00 71 71 61.0 2017-12-29 19:14:24.89625 Springfield-Branson National Airport (SGF)
2008-08-12 01:52:00 71 68 60.0 2017-12-29 19:14:24.89625 Springfield-Branson National Airport (SGF)
2008-08-12 02:52:00 70 68 59.0 2017-12-29 19:14:24.89625 Springfield-Branson National Airport (SGF)
2008-08-12 03:52:00 69 70 59.0 2017-12-29 19:14:24.89625 Springfield-Branson National Airport (SGF)
2008-08-12 04:52:00 67 71 57.0 2017-12-29 19:14:24.89625 Springfield-Branson National Airport (SGF)
2008-08-12 05:52:00 66 75 58.0 2017-12-29 19:14:24.89625 Springfield-Branson National Airport (SGF)
2008-08-12 06:52:00 66 78 59.0 2017-12-29 19:14:24.89625 Springfield-Branson National Airport (SGF)
2008-08-12 07:52:00 70 71 60.0 2017-12-29 19:14:24.89625 Springfield-Branson National Airport (SGF)
2008-08-12 11:52:00 78 54 60.0 2017-12-29 19:14:24.89625 Springfield-Branson National Airport (SGF)
2008-08-12 12:52:00 81 49 60.0 2017-12-29 19:14:24.89625 Springfield-Branson National Airport (SGF)
2008-08-12 13:52:00 81 51 61.0 2017-12-29 19:14:24.89625 Springfield-Branson National Airport (SGF)
2008-08-12 14:52:00 84 49 63.0 2017-12-29 19:14:24.89625 Springfield-Branson National Airport (SGF)
2008-08-12 16:52:00 82 51 62.0 2017-12-29 19:14:24.89625 Springfield-Branson National Airport (SGF)
2008-08-12 21:52:00 72 79 65.0 2017-12-29 19:14:24.89625 Springfield-Branson National Airport (SGF)
2008-08-12 08:52:00 71 71 61.0 2017-12-29 19:14:24.89625 Springfield-Branson National Airport (SGF)
2008-08-12 09:52:00 73 71 63.0 2017-12-29 19:14:24.89625 Springfield-Branson National Airport (SGF)
2008-08-12 10:52:00 76 62 62.0 2017-12-29 19:14:24.89625 Springfield-Branson National Airport (SGF)
2008-08-12 15:52:00 81 53 62.0 2017-12-29 19:14:24.89625 Springfield-Branson National Airport (SGF)
2008-08-12 17:52:00 80 54 62.0 2017-12-29 19:14:24.89625 Springfield-Branson National Airport (SGF)
2008-08-12 18:52:00 77 64 64.0 2017-12-29 19:14:24.89625 Springfield-Branson National Airport (SGF)
2008-08-12 19:52:00 73 76 65.0 2017-12-29 19:14:24.89625 Springfield-Branson National Airport (SGF)
2008-08-12 20:52:00 73 76 65.0 2017-12-29 19:14:24.89625 Springfield-Branson National Airport (SGF)
2008-08-12 22:52:00 71 81 65.0 2017-12-29 19:14:24.89625 Springfield-Branson National Airport (SGF)
2008-08-12 23:52:00 68 87 64.0 2017-12-29 19:14:24.89625 Springfield-Branson National Airport (SGF)

A total of 24 rows are displayed.